<?xml version="1.0" encoding="UTF-8" standalone="no" ?>
<gpx xmlns="http://www.topografix.com/GPX/1/1" xmlns:xsi="http://www.w3.org/2001/XMLSchema-instance" xsi:schemaLocation="http://www.topografix.com/GPX/1/1 http://www.topografix.com/GPX/1/1/gpx.xsd" version="1.1" creator="VisuGPX - https://www.visugpx.com">
  <metadata>
    <name>Sortie Moto</name>
  </metadata>
  <trk>
    <name><![CDATA[Journal actif: 2020-05-14 13:39]]></name>
    <trkseg>
      <trkpt lat="46.069" lon="6.31821">
        <ele>544.72</ele>
        <time>2020-05-14T11:39:40Z</time>
      </trkpt>
      <trkpt lat="46.06961" lon="6.32018">
        <ele>539.92</ele>
        <time>2020-05-14T11:39:51Z</time>
      </trkpt>
      <trkpt lat="46.06982" lon="6.32088">
        <ele>539.92</ele>
        <time>2020-05-14T11:39:57Z</time>
      </trkpt>
      <trkpt lat="46.06986" lon="6.32094">
        <ele>539.44</ele>
        <time>2020-05-14T11:39:58Z</time>
      </trkpt>
      <trkpt lat="46.06992" lon="6.32104">
        <ele>538.96</ele>
        <time>2020-05-14T11:39:59Z</time>
      </trkpt>
      <trkpt lat="46.06992" lon="6.32104">
        <ele>538.48</ele>
        <time>2020-05-14T11:40:00Z</time>
      </trkpt>
      <trkpt lat="46.06997" lon="6.32107">
        <ele>532.23</ele>
        <time>2020-05-14T11:40:01Z</time>
      </trkpt>
      <trkpt lat="46.07006" lon="6.32111">
        <ele>529.34</ele>
        <time>2020-05-14T11:40:02Z</time>
      </trkpt>
      <trkpt lat="46.07011" lon="6.32113">
        <ele>527.42</ele>
        <time>2020-05-14T11:40:03Z</time>
      </trkpt>
      <trkpt lat="46.07011" lon="6.32113">
        <ele>524.06</ele>
        <time>2020-05-14T11:40:04Z</time>
      </trkpt>
      <trkpt lat="46.07026" lon="6.32125">
        <ele>521.65</ele>
        <time>2020-05-14T11:40:07Z</time>
      </trkpt>
      <trkpt lat="46.07026" lon="6.32154">
        <ele>521.17</ele>
        <time>2020-05-14T11:40:09Z</time>
      </trkpt>
      <trkpt lat="46.07038" lon="6.32268">
        <ele>521.17</ele>
        <time>2020-05-14T11:40:14Z</time>
      </trkpt>
      <trkpt lat="46.07083" lon="6.32439">
        <ele>521.17</ele>
        <time>2020-05-14T11:40:22Z</time>
      </trkpt>
      <trkpt lat="46.07107" lon="6.32618">
        <ele>518.29</ele>
        <time>2020-05-14T11:40:31Z</time>
      </trkpt>
      <trkpt lat="46.07109" lon="6.3266">
        <ele>509.16</ele>
        <time>2020-05-14T11:40:36Z</time>
      </trkpt>
      <trkpt lat="46.07108" lon="6.3275">
        <ele>502.43</ele>
        <time>2020-05-14T11:40:42Z</time>
      </trkpt>
      <trkpt lat="46.07108" lon="6.3275">
        <ele>501.46</ele>
        <time>2020-05-14T11:40:43Z</time>
      </trkpt>
      <trkpt lat="46.07114" lon="6.32779">
        <ele>499.06</ele>
        <time>2020-05-14T11:40:45Z</time>
      </trkpt>
      <trkpt lat="46.07123" lon="6.32783">
        <ele>498.58</ele>
        <time>2020-05-14T11:40:46Z</time>
      </trkpt>
      <trkpt lat="46.07132" lon="6.32778">
        <ele>498.1</ele>
        <time>2020-05-14T11:40:47Z</time>
      </trkpt>
      <trkpt lat="46.07136" lon="6.32776">
        <ele>497.62</ele>
        <time>2020-05-14T11:40:48Z</time>
      </trkpt>
      <trkpt lat="46.07143" lon="6.32758">
        <ele>496.66</ele>
        <time>2020-05-14T11:40:49Z</time>
      </trkpt>
      <trkpt lat="46.07148" lon="6.32755">
        <ele>496.18</ele>
        <time>2020-05-14T11:40:50Z</time>
      </trkpt>
      <trkpt lat="46.07154" lon="6.3275">
        <ele>495.7</ele>
        <time>2020-05-14T11:40:51Z</time>
      </trkpt>
      <trkpt lat="46.07168" lon="6.32737">
        <ele>494.74</ele>
        <time>2020-05-14T11:40:53Z</time>
      </trkpt>
      <trkpt lat="46.07182" lon="6.32716">
        <ele>493.29</ele>
        <time>2020-05-14T11:40:56Z</time>
      </trkpt>
      <trkpt lat="46.07216" lon="6.32665">
        <ele>490.89</ele>
        <time>2020-05-14T11:41:03Z</time>
      </trkpt>
      <trkpt lat="46.07221" lon="6.32657">
        <ele>489.93</ele>
        <time>2020-05-14T11:41:05Z</time>
      </trkpt>
      <trkpt lat="46.07235" lon="6.32641">
        <ele>488.97</ele>
        <time>2020-05-14T11:41:07Z</time>
      </trkpt>
      <trkpt lat="46.07233" lon="6.32634">
        <ele>488.97</ele>
        <time>2020-05-14T11:41:08Z</time>
      </trkpt>
      <trkpt lat="46.07224" lon="6.32634">
        <ele>488.49</ele>
        <time>2020-05-14T11:41:09Z</time>
      </trkpt>
      <trkpt lat="46.07222" lon="6.32631">
        <ele>488.01</ele>
        <time>2020-05-14T11:41:10Z</time>
      </trkpt>
      <trkpt lat="46.07218" lon="6.32626">
        <ele>488.01</ele>
        <time>2020-05-14T11:41:11Z</time>
      </trkpt>
      <trkpt lat="46.07214" lon="6.32619">
        <ele>488.01</ele>
        <time>2020-05-14T11:41:12Z</time>
      </trkpt>
      <trkpt lat="46.07209" lon="6.32611">
        <ele>488.01</ele>
        <time>2020-05-14T11:41:13Z</time>
      </trkpt>
      <trkpt lat="46.07205" lon="6.32603">
        <ele>488.49</ele>
        <time>2020-05-14T11:41:14Z</time>
      </trkpt>
      <trkpt lat="46.07202" lon="6.32595">
        <ele>488.97</ele>
        <time>2020-05-14T11:41:15Z</time>
      </trkpt>
      <trkpt lat="46.07196" lon="6.32577">
        <ele>489.45</ele>
        <time>2020-05-14T11:41:17Z</time>
      </trkpt>
      <trkpt lat="46.07194" lon="6.32567">
        <ele>489.93</ele>
        <time>2020-05-14T11:41:18Z</time>
      </trkpt>
      <trkpt lat="46.07193" lon="6.32556">
        <ele>490.41</ele>
        <time>2020-05-14T11:41:19Z</time>
      </trkpt>
      <trkpt lat="46.07192" lon="6.32546">
        <ele>490.89</ele>
        <time>2020-05-14T11:41:20Z</time>
      </trkpt>
      <trkpt lat="46.07191" lon="6.32536">
        <ele>490.89</ele>
        <time>2020-05-14T11:41:21Z</time>
      </trkpt>
      <trkpt lat="46.07188" lon="6.32521">
        <ele>492.33</ele>
        <time>2020-05-14T11:41:23Z</time>
      </trkpt>
      <trkpt lat="46.07187" lon="6.32515">
        <ele>492.81</ele>
        <time>2020-05-14T11:41:24Z</time>
      </trkpt>
      <trkpt lat="46.07186" lon="6.32511">
        <ele>492.81</ele>
        <time>2020-05-14T11:41:25Z</time>
      </trkpt>
      <trkpt lat="46.07185" lon="6.32507">
        <ele>493.29</ele>
        <time>2020-05-14T11:41:26Z</time>
      </trkpt>
      <trkpt lat="46.07175" lon="6.32507">
        <ele>494.26</ele>
        <time>2020-05-14T11:41:27Z</time>
      </trkpt>
      <trkpt lat="46.07172" lon="6.32513">
        <ele>494.74</ele>
        <time>2020-05-14T11:41:28Z</time>
      </trkpt>
      <trkpt lat="46.07169" lon="6.32523">
        <ele>495.22</ele>
        <time>2020-05-14T11:41:29Z</time>
      </trkpt>
      <trkpt lat="46.07165" lon="6.32532">
        <ele>495.7</ele>
        <time>2020-05-14T11:41:30Z</time>
      </trkpt>
      <trkpt lat="46.07162" lon="6.3254">
        <ele>496.66</ele>
        <time>2020-05-14T11:41:31Z</time>
      </trkpt>
      <trkpt lat="46.07159" lon="6.32546">
        <ele>497.14</ele>
        <time>2020-05-14T11:41:32Z</time>
      </trkpt>
      <trkpt lat="46.07158" lon="6.3255">
        <ele>497.62</ele>
        <time>2020-05-14T11:41:33Z</time>
      </trkpt>
      <trkpt lat="46.07157" lon="6.32551">
        <ele>498.1</ele>
        <time>2020-05-14T11:41:34Z</time>
      </trkpt>
      <trkpt lat="46.07157" lon="6.32552">
        <ele>499.06</ele>
        <time>2020-05-14T11:41:35Z</time>
      </trkpt>
      <trkpt lat="46.07157" lon="6.32552">
        <ele>499.54</ele>
        <time>2020-05-14T11:41:50Z</time>
      </trkpt>
      <trkpt lat="46.07157" lon="6.32552">
        <ele>498.58</ele>
        <time>2020-05-14T11:42:22Z</time>
      </trkpt>
      <trkpt lat="46.07157" lon="6.32552">
        <ele>498.1</ele>
        <time>2020-05-14T11:43:17Z</time>
      </trkpt>
      <trkpt lat="46.07155" lon="6.32545">
        <ele>495.7</ele>
        <time>2020-05-14T11:53:49Z</time>
      </trkpt>
      <trkpt lat="46.07155" lon="6.3255">
        <ele>498.1</ele>
        <time>2020-05-14T11:54:00Z</time>
      </trkpt>
      <trkpt lat="46.07151" lon="6.3256">
        <ele>499.54</ele>
        <time>2020-05-14T11:54:04Z</time>
      </trkpt>
      <trkpt lat="46.07171" lon="6.32516">
        <ele>498.58</ele>
        <time>2020-05-14T11:54:09Z</time>
      </trkpt>
      <trkpt lat="46.07173" lon="6.32511">
        <ele>498.58</ele>
        <time>2020-05-14T11:54:10Z</time>
      </trkpt>
      <trkpt lat="46.0719" lon="6.32527">
        <ele>498.58</ele>
        <time>2020-05-14T11:54:11Z</time>
      </trkpt>
      <trkpt lat="46.07187" lon="6.32514">
        <ele>498.58</ele>
        <time>2020-05-14T11:54:12Z</time>
      </trkpt>
      <trkpt lat="46.07188" lon="6.32519">
        <ele>498.58</ele>
        <time>2020-05-14T11:54:13Z</time>
      </trkpt>
      <trkpt lat="46.0719" lon="6.32527">
        <ele>498.1</ele>
        <time>2020-05-14T11:54:14Z</time>
      </trkpt>
      <trkpt lat="46.07191" lon="6.32541">
        <ele>498.1</ele>
        <time>2020-05-14T11:54:15Z</time>
      </trkpt>
      <trkpt lat="46.07193" lon="6.32557">
        <ele>497.62</ele>
        <time>2020-05-14T11:54:16Z</time>
      </trkpt>
      <trkpt lat="46.07195" lon="6.32572">
        <ele>497.14</ele>
        <time>2020-05-14T11:54:17Z</time>
      </trkpt>
      <trkpt lat="46.07196" lon="6.32583">
        <ele>497.14</ele>
        <time>2020-05-14T11:54:18Z</time>
      </trkpt>
      <trkpt lat="46.07203" lon="6.32597">
        <ele>496.66</ele>
        <time>2020-05-14T11:54:19Z</time>
      </trkpt>
      <trkpt lat="46.07209" lon="6.32611">
        <ele>496.18</ele>
        <time>2020-05-14T11:54:20Z</time>
      </trkpt>
      <trkpt lat="46.07214" lon="6.32619">
        <ele>495.7</ele>
        <time>2020-05-14T11:54:21Z</time>
      </trkpt>
      <trkpt lat="46.07224" lon="6.32634">
        <ele>495.22</ele>
        <time>2020-05-14T11:54:22Z</time>
      </trkpt>
      <trkpt lat="46.07225" lon="6.32641">
        <ele>495.22</ele>
        <time>2020-05-14T11:54:23Z</time>
      </trkpt>
      <trkpt lat="46.07221" lon="6.32658">
        <ele>494.74</ele>
        <time>2020-05-14T11:54:24Z</time>
      </trkpt>
      <trkpt lat="46.07215" lon="6.32665">
        <ele>493.77</ele>
        <time>2020-05-14T11:54:25Z</time>
      </trkpt>
      <trkpt lat="46.07207" lon="6.32677">
        <ele>493.29</ele>
        <time>2020-05-14T11:54:26Z</time>
      </trkpt>
      <trkpt lat="46.072" lon="6.32689">
        <ele>493.29</ele>
        <time>2020-05-14T11:54:27Z</time>
      </trkpt>
      <trkpt lat="46.07171" lon="6.32733">
        <ele>493.77</ele>
        <time>2020-05-14T11:54:30Z</time>
      </trkpt>
      <trkpt lat="46.07162" lon="6.32743">
        <ele>494.26</ele>
        <time>2020-05-14T11:54:31Z</time>
      </trkpt>
      <trkpt lat="46.07154" lon="6.3275">
        <ele>494.74</ele>
        <time>2020-05-14T11:54:32Z</time>
      </trkpt>
      <trkpt lat="46.07146" lon="6.32757">
        <ele>495.22</ele>
        <time>2020-05-14T11:54:33Z</time>
      </trkpt>
      <trkpt lat="46.07136" lon="6.3275">
        <ele>495.22</ele>
        <time>2020-05-14T11:54:34Z</time>
      </trkpt>
      <trkpt lat="46.07132" lon="6.32747">
        <ele>496.18</ele>
        <time>2020-05-14T11:54:35Z</time>
      </trkpt>
      <trkpt lat="46.07125" lon="6.32739">
        <ele>496.66</ele>
        <time>2020-05-14T11:54:36Z</time>
      </trkpt>
      <trkpt lat="46.07123" lon="6.32729">
        <ele>497.14</ele>
        <time>2020-05-14T11:54:37Z</time>
      </trkpt>
      <trkpt lat="46.07121" lon="6.32708">
        <ele>498.1</ele>
        <time>2020-05-14T11:54:38Z</time>
      </trkpt>
      <trkpt lat="46.0712" lon="6.3269">
        <ele>498.58</ele>
        <time>2020-05-14T11:54:39Z</time>
      </trkpt>
      <trkpt lat="46.07118" lon="6.32671">
        <ele>499.06</ele>
        <time>2020-05-14T11:54:40Z</time>
      </trkpt>
      <trkpt lat="46.07094" lon="6.32472">
        <ele>504.35</ele>
        <time>2020-05-14T11:54:51Z</time>
      </trkpt>
      <trkpt lat="46.07041" lon="6.32282">
        <ele>511.56</ele>
        <time>2020-05-14T11:55:01Z</time>
      </trkpt>
      <trkpt lat="46.07025" lon="6.32177">
        <ele>513.48</ele>
        <time>2020-05-14T11:55:06Z</time>
      </trkpt>
      <trkpt lat="46.07027" lon="6.32118">
        <ele>514.92</ele>
        <time>2020-05-14T11:55:10Z</time>
      </trkpt>
      <trkpt lat="46.07023" lon="6.32101">
        <ele>514.92</ele>
        <time>2020-05-14T11:55:11Z</time>
      </trkpt>
      <trkpt lat="46.07017" lon="6.32099">
        <ele>514.92</ele>
        <time>2020-05-14T11:55:12Z</time>
      </trkpt>
      <trkpt lat="46.07009" lon="6.32097">
        <ele>514.92</ele>
        <time>2020-05-14T11:55:13Z</time>
      </trkpt>
      <trkpt lat="46.07" lon="6.32094">
        <ele>514.92</ele>
        <time>2020-05-14T11:55:14Z</time>
      </trkpt>
      <trkpt lat="46.06992" lon="6.32091">
        <ele>515.4</ele>
        <time>2020-05-14T11:55:15Z</time>
      </trkpt>
      <trkpt lat="46.06982" lon="6.32087">
        <ele>515.4</ele>
        <time>2020-05-14T11:55:16Z</time>
      </trkpt>
      <trkpt lat="46.06978" lon="6.32077">
        <ele>515.4</ele>
        <time>2020-05-14T11:55:17Z</time>
      </trkpt>
      <trkpt lat="46.06974" lon="6.32063">
        <ele>515.88</ele>
        <time>2020-05-14T11:55:18Z</time>
      </trkpt>
      <trkpt lat="46.06968" lon="6.32046">
        <ele>515.88</ele>
        <time>2020-05-14T11:55:19Z</time>
      </trkpt>
      <trkpt lat="46.06915" lon="6.3187">
        <ele>519.73</ele>
        <time>2020-05-14T11:55:29Z</time>
      </trkpt>
      <trkpt lat="46.06849" lon="6.31653">
        <ele>527.42</ele>
        <time>2020-05-14T11:55:41Z</time>
      </trkpt>
      <trkpt lat="46.06795" lon="6.31488">
        <ele>535.11</ele>
        <time>2020-05-14T11:55:51Z</time>
      </trkpt>
      <trkpt lat="46.06767" lon="6.31415">
        <ele>539.92</ele>
        <time>2020-05-14T11:55:56Z</time>
      </trkpt>
      <trkpt lat="46.06762" lon="6.31403">
        <ele>540.88</ele>
        <time>2020-05-14T11:55:57Z</time>
      </trkpt>
      <trkpt lat="46.06752" lon="6.31375">
        <ele>543.28</ele>
        <time>2020-05-14T11:56:00Z</time>
      </trkpt>
      <trkpt lat="46.06751" lon="6.31364">
        <ele>543.76</ele>
        <time>2020-05-14T11:56:01Z</time>
      </trkpt>
      <trkpt lat="46.0675" lon="6.31336">
        <ele>545.2</ele>
        <time>2020-05-14T11:56:04Z</time>
      </trkpt>
      <trkpt lat="46.06748" lon="6.31326">
        <ele>545.2</ele>
        <time>2020-05-14T11:56:05Z</time>
      </trkpt>
      <trkpt lat="46.06743" lon="6.31311">
        <ele>546.65</ele>
        <time>2020-05-14T11:56:08Z</time>
      </trkpt>
      <trkpt lat="46.06741" lon="6.31302">
        <ele>547.61</ele>
        <time>2020-05-14T11:56:10Z</time>
      </trkpt>
      <trkpt lat="46.06738" lon="6.31296">
        <ele>547.61</ele>
        <time>2020-05-14T11:56:11Z</time>
      </trkpt>
      <trkpt lat="46.0673" lon="6.31274">
        <ele>548.57</ele>
        <time>2020-05-14T11:56:14Z</time>
      </trkpt>
      <trkpt lat="46.06733" lon="6.31253">
        <ele>549.53</ele>
        <time>2020-05-14T11:56:16Z</time>
      </trkpt>
      <trkpt lat="46.06726" lon="6.31246">
        <ele>549.53</ele>
        <time>2020-05-14T11:56:17Z</time>
      </trkpt>
      <trkpt lat="46.06725" lon="6.31238">
        <ele>550.01</ele>
        <time>2020-05-14T11:56:18Z</time>
      </trkpt>
      <trkpt lat="46.06724" lon="6.31229">
        <ele>550.01</ele>
        <time>2020-05-14T11:56:19Z</time>
      </trkpt>
      <trkpt lat="46.06723" lon="6.3122">
        <ele>550.49</ele>
        <time>2020-05-14T11:56:20Z</time>
      </trkpt>
      <trkpt lat="46.06717" lon="6.31207">
        <ele>550.49</ele>
        <time>2020-05-14T11:56:21Z</time>
      </trkpt>
      <trkpt lat="46.06713" lon="6.31201">
        <ele>550.97</ele>
        <time>2020-05-14T11:56:22Z</time>
      </trkpt>
      <trkpt lat="46.06666" lon="6.31145">
        <ele>555.3</ele>
        <time>2020-05-14T11:56:30Z</time>
      </trkpt>
      <trkpt lat="46.0666" lon="6.31141">
        <ele>555.78</ele>
        <time>2020-05-14T11:56:31Z</time>
      </trkpt>
      <trkpt lat="46.06645" lon="6.31131">
        <ele>556.74</ele>
        <time>2020-05-14T11:56:33Z</time>
      </trkpt>
      <trkpt lat="46.06636" lon="6.31125">
        <ele>557.7</ele>
        <time>2020-05-14T11:56:34Z</time>
      </trkpt>
      <trkpt lat="46.06619" lon="6.31112">
        <ele>559.14</ele>
        <time>2020-05-14T11:56:36Z</time>
      </trkpt>
      <trkpt lat="46.06611" lon="6.31107">
        <ele>559.62</ele>
        <time>2020-05-14T11:56:37Z</time>
      </trkpt>
      <trkpt lat="46.066" lon="6.31099">
        <ele>559.62</ele>
        <time>2020-05-14T11:56:39Z</time>
      </trkpt>
      <trkpt lat="46.06599" lon="6.3109">
        <ele>559.62</ele>
        <time>2020-05-14T11:56:40Z</time>
      </trkpt>
      <trkpt lat="46.066" lon="6.31083">
        <ele>559.14</ele>
        <time>2020-05-14T11:56:41Z</time>
      </trkpt>
      <trkpt lat="46.06604" lon="6.31055">
        <ele>559.14</ele>
        <time>2020-05-14T11:56:43Z</time>
      </trkpt>
      <trkpt lat="46.06605" lon="6.31039">
        <ele>559.14</ele>
        <time>2020-05-14T11:56:44Z</time>
      </trkpt>
      <trkpt lat="46.0661" lon="6.31009">
        <ele>560.59</ele>
        <time>2020-05-14T11:56:46Z</time>
      </trkpt>
      <trkpt lat="46.06613" lon="6.30996">
        <ele>561.55</ele>
        <time>2020-05-14T11:56:47Z</time>
      </trkpt>
      <trkpt lat="46.06624" lon="6.30942">
        <ele>565.87</ele>
        <time>2020-05-14T11:56:52Z</time>
      </trkpt>
      <trkpt lat="46.06633" lon="6.3091">
        <ele>567.32</ele>
        <time>2020-05-14T11:56:55Z</time>
      </trkpt>
      <trkpt lat="46.06641" lon="6.30908">
        <ele>567.8</ele>
        <time>2020-05-14T11:56:56Z</time>
      </trkpt>
      <trkpt lat="46.06646" lon="6.3091">
        <ele>568.76</ele>
        <time>2020-05-14T11:56:57Z</time>
      </trkpt>
      <trkpt lat="46.06652" lon="6.30911">
        <ele>569.24</ele>
        <time>2020-05-14T11:56:58Z</time>
      </trkpt>
      <trkpt lat="46.0666" lon="6.30909">
        <ele>569.72</ele>
        <time>2020-05-14T11:56:59Z</time>
      </trkpt>
      <trkpt lat="46.06669" lon="6.30906">
        <ele>570.68</ele>
        <time>2020-05-14T11:57:00Z</time>
      </trkpt>
      <trkpt lat="46.06685" lon="6.30903">
        <ele>571.64</ele>
        <time>2020-05-14T11:57:02Z</time>
      </trkpt>
      <trkpt lat="46.06693" lon="6.309">
        <ele>572.6</ele>
        <time>2020-05-14T11:57:03Z</time>
      </trkpt>
      <trkpt lat="46.06699" lon="6.3089">
        <ele>573.08</ele>
        <time>2020-05-14T11:57:04Z</time>
      </trkpt>
      <trkpt lat="46.06706" lon="6.30879">
        <ele>573.56</ele>
        <time>2020-05-14T11:57:05Z</time>
      </trkpt>
      <trkpt lat="46.06715" lon="6.30866">
        <ele>574.04</ele>
        <time>2020-05-14T11:57:06Z</time>
      </trkpt>
      <trkpt lat="46.06748" lon="6.30813">
        <ele>573.56</ele>
        <time>2020-05-14T11:57:12Z</time>
      </trkpt>
      <trkpt lat="46.06749" lon="6.30812">
        <ele>573.56</ele>
        <time>2020-05-14T11:57:13Z</time>
      </trkpt>
      <trkpt lat="46.06749" lon="6.30812">
        <ele>573.56</ele>
        <time>2020-05-14T11:57:14Z</time>
      </trkpt>
      <trkpt lat="46.06749" lon="6.30812">
        <ele>574.04</ele>
        <time>2020-05-14T11:57:28Z</time>
      </trkpt>
    </trkseg>
  </trk>
</gpx>